sensor_id;sensor_type;location;lat;lon;timestamp;temperature;humidity
40638;DHT22;26336;44.696;10.622;2023-07-22T00:00:26;25.70;99.90
40638;DHT22;26336;44.696;10.622;2023-07-22T00:03:30;25.80;99.90
40638;DHT22;26336;44.696;10.622;2023-07-22T00:06:33;25.80;99.90
40638;DHT22;26336;44.696;10.622;2023-07-22T00:09:37;25.70;99.90
40638;DHT22;26336;44.696;10.622;2023-07-22T00:12:42;25.70;99.90
40638;DHT22;26336;44.696;10.622;2023-07-22T00:15:46;25.70;99.90
40638;DHT22;26336;44.696;10.622;2023-07-22T00:18:50;25.70;99.90
40638;DHT22;26336;44.696;10.622;2023-07-22T00:21:54;25.80;99.90
40638;DHT22;26336;44.696;10.622;2023-07-22T00:24:57;25.70;99.90
40638;DHT22;26336;44.696;10.622;2023-07-22T00:28:04;25.70;99.90
40638;DHT22;26336;44.696;10.622;2023-07-22T00:31:07;25.70;99.90
40638;DHT22;26336;44.696;10.622;2023-07-22T00:34:12;25.60;99.90
40638;DHT22;26336;44.696;10.622;2023-07-22T00:37:16;25.50;99.90
40638;DHT22;26336;44.696;10.622;2023-07-22T00:40:20;25.60;99.90
40638;DHT22;26336;44.696;10.622;2023-07-22T00:43:24;25.70;99.90
40638;DHT22;26336;44.696;10.622;2023-07-22T00:46:29;25.70;99.90
40638;DHT22;26336;44.696;10.622;2023-07-22T00:49:35;25.80;99.90
40638;DHT22;26336;44.696;10.622;2023-07-22T00:52:39;25.80;99.90
40638;DHT22;26336;44.696;10.622;2023-07-22T00:55:45;25.80;99.90
40638;DHT22;26336;44.696;10.622;2023-07-22T00:58:49;25.80;99.90
40638;DHT22;26336;44.696;10.622;2023-07-22T01:01:53;25.80;99.90
40638;DHT22;26336;44.696;10.622;2023-07-22T01:04:57;25.90;99.90
40638;DHT22;26336;44.696;10.622;2023-07-22T01:08:02;25.90;99.90
40638;DHT22;26336;44.696;10.622;2023-07-22T01:11:06;25.90;99.90
40638;DHT22;26336;44.696;10.622;2023-07-22T01:14:10;25.70;99.90
40638;DHT22;26336;44.696;10.622;2023-07-22T01:17:14;25.50;99.90
40638;DHT22;26336;44.696;10.622;2023-07-22T01:20:18;25.50;99.90
40638;DHT22;26336;44.696;10.622;2023-07-22T01:23:23;25.40;99.90
40638;DHT22;26336;44.696;10.622;2023-07-22T01:26:26;25.20;99.90
40638;DHT22;26336;44.696;10.622;2023-07-22T01:29:30;25.10;99.90
40638;DHT22;26336;44.696;10.622;2023-07-22T01:32:34;25.20;99.90
40638;DHT22;26336;44.696;10.622;2023-07-22T01:35:38;25.30;99.90
40638;DHT22;26336;44.696;10.622;2023-07-22T01:38:42;25.30;99.90
40638;DHT22;26336;44.696;10.622;2023-07-22T01:41:46;25.20;99.90
40638;DHT22;26336;44.696;10.622;2023-07-22T01:44:50;25.20;99.90
40638;DHT22;26336;44.696;10.622;2023-07-22T01:47:54;25.20;99.90
40638;DHT22;26336;44.696;10.622;2023-07-22T01:50:58;25.20;99.90
40638;DHT22;26336;44.696;10.622;2023-07-22T01:54:02;25.20;99.90
40638;DHT22;26336;44.696;10.622;2023-07-22T01:57:06;25.20;99.90
40638;DHT22;26336;44.696;10.622;2023-07-22T02:00:13;25.10;99.90
40638;DHT22;26336;44.696;10.622;2023-07-22T02:03:21;24.90;99.90
40638;DHT22;26336;44.696;10.622;2023-07-22T02:06:26;24.80;99.90
40638;DHT22;26336;44.696;10.622;2023-07-22T02:09:32;24.60;99.90
40638;DHT22;26336;44.696;10.622;2023-07-22T02:12:36;24.60;99.90
40638;DHT22;26336;44.696;10.622;2023-07-22T02:15:41;24.60;99.90
40638;DHT22;26336;44.696;10.622;2023-07-22T02:18:46;24.60;99.90
40638;DHT22;26336;44.696;10.622;2023-07-22T02:21:54;24.60;99.90
40638;DHT22;26336;44.696;10.622;2023-07-22T02:24:58;24.50;99.90
40638;DHT22;26336;44.696;10.622;2023-07-22T02:28:02;24.50;99.90
40638;DHT22;26336;44.696;10.622;2023-07-22T02:31:06;24.30;99.90
40638;DHT22;26336;44.696;10.622;2023-07-22T02:34:10;24.20;99.90
40638;DHT22;26336;44.696;10.622;2023-07-22T02:37:14;24.10;99.90
40638;DHT22;26336;44.696;10.622;2023-07-22T02:40:18;24.10;99.90
40638;DHT22;26336;44.696;10.622;2023-07-22T02:43:22;24.00;99.90
40638;DHT22;26336;44.696;10.622;2023-07-22T02:46:26;23.90;99.90
40638;DHT22;26336;44.696;10.622;2023-07-22T02:49:30;24.00;99.90
40638;DHT22;26336;44.696;10.622;2023-07-22T02:52:34;23.90;99.90
40638;DHT22;26336;44.696;10.622;2023-07-22T02:55:41;23.90;99.90
40638;DHT22;26336;44.696;10.622;2023-07-22T02:58:45;23.90;99.90
40638;DHT22;26336;44.696;10.622;2023-07-22T03:01:49;23.90;99.90
40638;DHT22;26336;44.696;10.622;2023-07-22T03:04:53;24.00;99.90
40638;DHT22;26336;44.696;10.622;2023-07-22T03:07:58;24.10;99.90
40638;DHT22;26336;44.696;10.622;2023-07-22T03:11:02;24.10;99.90
40638;DHT22;26336;44.696;10.622;2023-07-22T03:14:07;24.00;99.90
40638;DHT22;26336;44.696;10.622;2023-07-22T03:17:12;24.00;99.90
40638;DHT22;26336;44.696;10.622;2023-07-22T03:20:19;23.80;99.90
40638;DHT22;26336;44.696;10.622;2023-07-22T03:23:24;23.80;99.90
40638;DHT22;26336;44.696;10.622;2023-07-22T03:26:27;23.70;99.90
40638;DHT22;26336;44.696;10.622;2023-07-22T03:29:32;23.70;99.90
40638;DHT22;26336;44.696;10.622;2023-07-22T03:32:36;23.80;99.90
40638;DHT22;26336;44.696;10.622;2023-07-22T03:35:40;24.00;99.90
40638;DHT22;26336;44.696;10.622;2023-07-22T03:38:43;24.00;99.90
40638;DHT22;26336;44.696;10.622;2023-07-22T03:41:48;24.10;99.90
40638;DHT22;26336;44.696;10.622;2023-07-22T03:44:52;24.20;99.90
40638;DHT22;26336;44.696;10.622;2023-07-22T03:47:58;24.20;99.90
40638;DHT22;26336;44.696;10.622;2023-07-22T03:51:02;24.30;99.90
40638;DHT22;26336;44.696;10.622;2023-07-22T03:54:06;24.20;99.90
40638;DHT22;26336;44.696;10.622;2023-07-22T03:57:10;24.20;99.90
40638;DHT22;26336;44.696;10.622;2023-07-22T04:00:14;24.30;99.90
40638;DHT22;26336;44.696;10.622;2023-07-22T04:03:19;24.10;99.90
40638;DHT22;26336;44.696;10.622;2023-07-22T04:06:23;23.90;99.90
40638;DHT22;26336;44.696;10.622;2023-07-22T04:09:27;23.90;99.90
40638;DHT22;26336;44.696;10.622;2023-07-22T04:12:31;24.00;99.90
40638;DHT22;26336;44.696;10.622;2023-07-22T04:15:35;24.10;99.90
40638;DHT22;26336;44.696;10.622;2023-07-22T04:18:39;24.20;99.90
40638;DHT22;26336;44.696;10.622;2023-07-22T04:21:43;24.30;99.90
40638;DHT22;26336;44.696;10.622;2023-07-22T04:24:47;24.40;99.90
40638;DHT22;26336;44.696;10.622;2023-07-22T04:27:55;24.50;99.90
40638;DHT22;26336;44.696;10.622;2023-07-22T04:31:00;24.50;99.90
40638;DHT22;26336;44.696;10.622;2023-07-22T04:34:07;24.60;99.90
40638;DHT22;26336;44.696;10.622;2023-07-22T04:37:12;24.60;99.90
40638;DHT22;26336;44.696;10.622;2023-07-22T04:40:16;24.70;99.90
40638;DHT22;26336;44.696;10.622;2023-07-22T04:43:21;24.70;99.90
40638;DHT22;26336;44.696;10.622;2023-07-22T04:46:25;24.70;99.90
40638;DHT22;26336;44.696;10.622;2023-07-22T04:49:29;24.80;99.90
40638;DHT22;26336;44.696;10.622;2023-07-22T04:52:34;24.70;99.90
40638;DHT22;26336;44.696;10.622;2023-07-22T04:55:37;24.80;99.90
40638;DHT22;26336;44.696;10.622;2023-07-22T04:58:42;24.80;99.90
40638;DHT22;26336;44.696;10.622;2023-07-22T05:01:47;24.80;99.90
40638;DHT22;26336;44.696;10.622;2023-07-22T05:04:51;24.80;99.90
40638;DHT22;26336;44.696;10.622;2023-07-22T05:07:55;24.80;99.90
40638;DHT22;26336;44.696;10.622;2023-07-22T05:10:59;24.90;99.90
40638;DHT22;26336;44.696;10.622;2023-07-22T05:14:02;24.90;99.90
40638;DHT22;26336;44.696;10.622;2023-07-22T05:17:06;24.90;99.90
40638;DHT22;26336;44.696;10.622;2023-07-22T05:20:11;24.90;99.90
40638;DHT22;26336;44.696;10.622;2023-07-22T05:23:16;24.90;99.90
40638;DHT22;26336;44.696;10.622;2023-07-22T05:26:20;24.90;99.90
40638;DHT22;26336;44.696;10.622;2023-07-22T05:29:24;24.90;99.90
40638;DHT22;26336;44.696;10.622;2023-07-22T05:32:29;25.00;99.90
40638;DHT22;26336;44.696;10.622;2023-07-22T05:35:35;25.00;99.90
40638;DHT22;26336;44.696;10.622;2023-07-22T05:38:40;25.00;99.90
40638;DHT22;26336;44.696;10.622;2023-07-22T05:41:43;25.00;99.90
40638;DHT22;26336;44.696;10.622;2023-07-22T05:44:48;25.00;99.90
40638;DHT22;26336;44.696;10.622;2023-07-22T05:47:52;25.00;99.90
40638;DHT22;26336;44.696;10.622;2023-07-22T05:50:56;25.00;99.90
40638;DHT22;26336;44.696;10.622;2023-07-22T05:54:00;25.00;99.90
40638;DHT22;26336;44.696;10.622;2023-07-22T05:57:04;25.00;99.90
40638;DHT22;26336;44.696;10.622;2023-07-22T06:00:09;25.00;99.90
40638;DHT22;26336;44.696;10.622;2023-07-22T06:03:16;25.00;99.90
40638;DHT22;26336;44.696;10.622;2023-07-22T06:06:20;25.00;99.90
40638;DHT22;26336;44.696;10.622;2023-07-22T06:09:24;25.10;99.90
40638;DHT22;26336;44.696;10.622;2023-07-22T06:12:28;25.10;99.90
40638;DHT22;26336;44.696;10.622;2023-07-22T06:15:32;25.10;99.90
40638;DHT22;26336;44.696;10.622;2023-07-22T06:18:36;25.10;99.90
40638;DHT22;26336;44.696;10.622;2023-07-22T06:21:40;25.10;99.90
40638;DHT22;26336;44.696;10.622;2023-07-22T06:24:44;25.10;99.90
40638;DHT22;26336;44.696;10.622;2023-07-22T06:27:48;25.10;99.90
40638;DHT22;26336;44.696;10.622;2023-07-22T06:30:52;25.20;99.90
40638;DHT22;26336;44.696;10.622;2023-07-22T06:33:59;25.20;99.90
40638;DHT22;26336;44.696;10.622;2023-07-22T06:37:03;25.20;99.90
40638;DHT22;26336;44.696;10.622;2023-07-22T06:40:08;25.20;99.90
40638;DHT22;26336;44.696;10.622;2023-07-22T06:43:12;25.20;99.90
40638;DHT22;26336;44.696;10.622;2023-07-22T06:46:16;25.30;99.90
40638;DHT22;26336;44.696;10.622;2023-07-22T06:49:20;25.30;99.90
40638;DHT22;26336;44.696;10.622;2023-07-22T06:52:24;25.40;99.90
40638;DHT22;26336;44.696;10.622;2023-07-22T06:55:28;25.40;99.90
40638;DHT22;26336;44.696;10.622;2023-07-22T06:58:32;25.40;99.90
40638;DHT22;26336;44.696;10.622;2023-07-22T07:01:36;25.40;99.90
40638;DHT22;26336;44.696;10.622;2023-07-22T07:04:40;25.40;99.90
40638;DHT22;26336;44.696;10.622;2023-07-22T07:07:49;25.40;99.90
40638;DHT22;26336;44.696;10.622;2023-07-22T07:10:53;25.40;99.90
40638;DHT22;26336;44.696;10.622;2023-07-22T07:13:57;25.20;99.90
40638;DHT22;26336;44.696;10.622;2023-07-22T07:17:02;25.30;99.90
40638;DHT22;26336;44.696;10.622;2023-07-22T07:20:06;25.20;99.90
40638;DHT22;26336;44.696;10.622;2023-07-22T07:23:12;25.30;99.90
40638;DHT22;26336;44.696;10.622;2023-07-22T07:26:17;25.40;99.90
40638;DHT22;26336;44.696;10.622;2023-07-22T07:29:21;25.50;99.90
40638;DHT22;26336;44.696;10.622;2023-07-22T07:32:25;25.50;99.90
40638;DHT22;26336;44.696;10.622;2023-07-22T07:35:29;25.50;99.90
40638;DHT22;26336;44.696;10.622;2023-07-22T07:38:33;25.50;99.90
40638;DHT22;26336;44.696;10.622;2023-07-22T07:41:37;25.60;99.90
40638;DHT22;26336;44.696;10.622;2023-07-22T07:44:41;25.60;99.90
40638;DHT22;26336;44.696;10.622;2023-07-22T07:47:45;25.70;99.90
40638;DHT22;26336;44.696;10.622;2023-07-22T07:50:49;25.80;99.90
40638;DHT22;26336;44.696;10.622;2023-07-22T07:53:54;25.80;99.90
40638;DHT22;26336;44.696;10.622;2023-07-22T07:56:58;25.80;99.90
40638;DHT22;26336;44.696;10.622;2023-07-22T08:00:02;25.80;99.90
40638;DHT22;26336;44.696;10.622;2023-07-22T08:03:09;25.90;99.90
40638;DHT22;26336;44.696;10.622;2023-07-22T08:06:13;25.90;99.90
40638;DHT22;26336;44.696;10.622;2023-07-22T08:09:17;25.90;99.90
40638;DHT22;26336;44.696;10.622;2023-07-22T08:12:22;25.90;99.90
40638;DHT22;26336;44.696;10.622;2023-07-22T08:15:28;25.90;99.90
40638;DHT22;26336;44.696;10.622;2023-07-22T08:18:35;25.90;99.90
40638;DHT22;26336;44.696;10.622;2023-07-22T08:21:40;26.00;99.90
40638;DHT22;26336;44.696;10.622;2023-07-22T08:24:44;26.10;99.90
40638;DHT22;26336;44.696;10.622;2023-07-22T08:27:48;26.10;99.90
40638;DHT22;26336;44.696;10.622;2023-07-22T08:30:56;26.10;99.90
40638;DHT22;26336;44.696;10.622;2023-07-22T08:34:00;26.20;99.90
40638;DHT22;26336;44.696;10.622;2023-07-22T08:37:05;26.30;99.90
40638;DHT22;26336;44.696;10.622;2023-07-22T08:40:09;26.40;99.90
40638;DHT22;26336;44.696;10.622;2023-07-22T08:43:15;26.40;99.90
40638;DHT22;26336;44.696;10.622;2023-07-22T08:46:20;26.40;99.90
40638;DHT22;26336;44.696;10.622;2023-07-22T08:49:27;26.40;99.90
40638;DHT22;26336;44.696;10.622;2023-07-22T08:52:33;26.50;99.90
40638;DHT22;26336;44.696;10.622;2023-07-22T08:55:38;26.60;99.90
40638;DHT22;26336;44.696;10.622;2023-07-22T08:58:46;26.60;99.90
40638;DHT22;26336;44.696;10.622;2023-07-22T09:01:50;26.60;99.90
40638;DHT22;26336;44.696;10.622;2023-07-22T09:04:55;26.70;99.90
40638;DHT22;26336;44.696;10.622;2023-07-22T09:08:03;26.80;99.90
40638;DHT22;26336;44.696;10.622;2023-07-22T09:11:08;26.90;99.90
40638;DHT22;26336;44.696;10.622;2023-07-22T09:14:12;27.00;99.90
40638;DHT22;26336;44.696;10.622;2023-07-22T09:17:17;27.00;99.90
40638;DHT22;26336;44.696;10.622;2023-07-22T09:20:21;27.20;99.90
40638;DHT22;26336;44.696;10.622;2023-07-22T09:23:37;27.20;99.90
40638;DHT22;26336;44.696;10.622;2023-07-22T09:26:43;27.30;99.90
40638;DHT22;26336;44.696;10.622;2023-07-22T09:29:47;27.40;99.90
40638;DHT22;26336;44.696;10.622;2023-07-22T09:33:01;27.50;99.90
40638;DHT22;26336;44.696;10.622;2023-07-22T09:36:06;27.50;99.90
40638;DHT22;26336;44.696;10.622;2023-07-22T09:39:14;27.70;99.90
40638;DHT22;26336;44.696;10.622;2023-07-22T09:42:25;27.80;99.90
40638;DHT22;26336;44.696;10.622;2023-07-22T09:45:32;27.80;99.80
40638;DHT22;26336;44.696;10.622;2023-07-22T09:48:44;27.90;99.90
40638;DHT22;26336;44.696;10.622;2023-07-22T09:51:52;28.00;99.90
40638;DHT22;26336;44.696;10.622;2023-07-22T09:54:59;28.10;99.40
40638;DHT22;26336;44.696;10.622;2023-07-22T09:58:04;28.10;99.30
40638;DHT22;26336;44.696;10.622;2023-07-22T10:01:16;28.10;99.20
40638;DHT22;26336;44.696;10.622;2023-07-22T10:04:25;28.10;99.00
40638;DHT22;26336;44.696;10.622;2023-07-22T10:07:33;28.20;98.80
40638;DHT22;26336;44.696;10.622;2023-07-22T10:10:43;28.20;98.80
40638;DHT22;26336;44.696;10.622;2023-07-22T10:13:47;28.20;98.90
40638;DHT22;26336;44.696;10.622;2023-07-22T10:16:52;28.30;98.70
40638;DHT22;26336;44.696;10.622;2023-07-22T10:19:57;28.40;98.60
40638;DHT22;26336;44.696;10.622;2023-07-22T10:23:02;28.50;98.90
40638;DHT22;26336;44.696;10.622;2023-07-22T10:26:08;28.60;98.70
40638;DHT22;26336;44.696;10.622;2023-07-22T10:29:14;28.60;98.70
40638;DHT22;26336;44.696;10.622;2023-07-22T10:32:18;28.70;98.60
40638;DHT22;26336;44.696;10.622;2023-07-22T10:38:36;28.80;98.10
40638;DHT22;26336;44.696;10.622;2023-07-22T10:41:41;28.90;97.10
40638;DHT22;26336;44.696;10.622;2023-07-22T10:44:44;28.80;96.70
40638;DHT22;26336;44.696;10.622;2023-07-22T10:48:03;28.80;96.90
40638;DHT22;26336;44.696;10.622;2023-07-22T10:51:14;28.80;97.10
40638;DHT22;26336;44.696;10.622;2023-07-22T10:54:37;28.90;96.60
40638;DHT22;26336;44.696;10.622;2023-07-22T10:57:53;29.00;97.20
40638;DHT22;26336;44.696;10.622;2023-07-22T11:01:43;29.00;96.80
40638;DHT22;26336;44.696;10.622;2023-07-22T11:04:47;29.00;97.10
40638;DHT22;26336;44.696;10.622;2023-07-22T11:07:51;29.10;97.00
40638;DHT22;26336;44.696;10.622;2023-07-22T11:10:55;29.20;96.90
40638;DHT22;26336;44.696;10.622;2023-07-22T11:14:21;29.30;96.70
40638;DHT22;26336;44.696;10.622;2023-07-22T11:17:30;29.30;96.50
40638;DHT22;26336;44.696;10.622;2023-07-22T11:20:34;29.30;96.80
40638;DHT22;26336;44.696;10.622;2023-07-22T11:23:38;29.30;96.90
40638;DHT22;26336;44.696;10.622;2023-07-22T11:26:44;29.40;96.90
40638;DHT22;26336;44.696;10.622;2023-07-22T11:29:48;29.50;96.70
40638;DHT22;26336;44.696;10.622;2023-07-22T11:32:53;29.50;96.60
40638;DHT22;26336;44.696;10.622;2023-07-22T11:36:02;29.50;96.50
40638;DHT22;26336;44.696;10.622;2023-07-22T11:39:08;29.40;96.50
40638;DHT22;26336;44.696;10.622;2023-07-22T11:42:15;29.50;96.40
40638;DHT22;26336;44.696;10.622;2023-07-22T11:45:20;29.50;96.40
40638;DHT22;26336;44.696;10.622;2023-07-22T11:48:24;29.60;96.50
40638;DHT22;26336;44.696;10.622;2023-07-22T11:51:29;29.70;96.10
40638;DHT22;26336;44.696;10.622;2023-07-22T11:54:42;29.80;96.10
40638;DHT22;26336;44.696;10.622;2023-07-22T11:57:52;29.80;96.10
40638;DHT22;26336;44.696;10.622;2023-07-22T12:01:10;29.80;95.80
40638;DHT22;26336;44.696;10.622;2023-07-22T12:04:14;29.90;95.90
40638;DHT22;26336;44.696;10.622;2023-07-22T12:07:26;29.90;95.40
40638;DHT22;26336;44.696;10.622;2023-07-22T12:10:30;30.00;95.50
40638;DHT22;26336;44.696;10.622;2023-07-22T12:13:36;29.90;95.40
40638;DHT22;26336;44.696;10.622;2023-07-22T12:16:42;29.90;95.50
40638;DHT22;26336;44.696;10.622;2023-07-22T12:19:52;29.80;95.50
40638;DHT22;26336;44.696;10.622;2023-07-22T12:22:57;29.60;94.90
40638;DHT22;26336;44.696;10.622;2023-07-22T12:26:03;29.50;95.00
40638;DHT22;26336;44.696;10.622;2023-07-22T12:29:08;29.20;95.60
40638;DHT22;26336;44.696;10.622;2023-07-22T12:32:12;29.00;97.00
40638;DHT22;26336;44.696;10.622;2023-07-22T12:35:16;28.80;98.20
40638;DHT22;26336;44.696;10.622;2023-07-22T12:38:22;28.60;99.80
40638;DHT22;26336;44.696;10.622;2023-07-22T12:41:26;28.30;99.90
40638;DHT22;26336;44.696;10.622;2023-07-22T12:44:30;27.90;99.90
40638;DHT22;26336;44.696;10.622;2023-07-22T12:47:34;27.60;99.90
40638;DHT22;26336;44.696;10.622;2023-07-22T12:50:41;27.30;99.90
40638;DHT22;26336;44.696;10.622;2023-07-22T12:53:45;26.60;99.90
40638;DHT22;26336;44.696;10.622;2023-07-22T12:56:49;26.30;99.90
40638;DHT22;26336;44.696;10.622;2023-07-22T12:59:55;25.60;99.90
40638;DHT22;26336;44.696;10.622;2023-07-22T13:02:58;25.50;99.90
40638;DHT22;26336;44.696;10.622;2023-07-22T13:06:02;25.60;99.90
40638;DHT22;26336;44.696;10.622;2023-07-22T13:09:06;25.70;99.90
40638;DHT22;26336;44.696;10.622;2023-07-22T13:12:13;25.40;99.90
40638;DHT22;26336;44.696;10.622;2023-07-22T13:15:17;25.50;99.90
40638;DHT22;26336;44.696;10.622;2023-07-22T13:18:21;25.30;99.90
40638;DHT22;26336;44.696;10.622;2023-07-22T13:21:25;25.40;99.90
40638;DHT22;26336;44.696;10.622;2023-07-22T13:24:29;25.60;99.90
40638;DHT22;26336;44.696;10.622;2023-07-22T13:27:33;25.90;99.90
40638;DHT22;26336;44.696;10.622;2023-07-22T13:30:37;26.00;99.90
40638;DHT22;26336;44.696;10.622;2023-07-22T13:33:42;26.20;99.90
40638;DHT22;26336;44.696;10.622;2023-07-22T13:36:46;26.40;99.90
40638;DHT22;26336;44.696;10.622;2023-07-22T13:39:50;26.40;99.90
40638;DHT22;26336;44.696;10.622;2023-07-22T13:42:55;26.50;99.90
40638;DHT22;26336;44.696;10.622;2023-07-22T13:46:07;26.60;99.90
40638;DHT22;26336;44.696;10.622;2023-07-22T13:49:44;26.60;99.90
40638;DHT22;26336;44.696;10.622;2023-07-22T13:52:49;26.70;99.90
40638;DHT22;26336;44.696;10.622;2023-07-22T13:55:54;26.80;99.90
40638;DHT22;26336;44.696;10.622;2023-07-22T13:58:59;26.90;99.90
40638;DHT22;26336;44.696;10.622;2023-07-22T14:02:07;26.90;99.90
40638;DHT22;26336;44.696;10.622;2023-07-22T14:05:12;27.00;99.90
40638;DHT22;26336;44.696;10.622;2023-07-22T14:08:16;27.10;99.90
40638;DHT22;26336;44.696;10.622;2023-07-22T14:11:25;27.20;99.90
40638;DHT22;26336;44.696;10.622;2023-07-22T14:14:29;27.10;99.90
40638;DHT22;26336;44.696;10.622;2023-07-22T14:17:33;27.20;99.90
40638;DHT22;26336;44.696;10.622;2023-07-22T14:20:37;27.10;99.90
40638;DHT22;26336;44.696;10.622;2023-07-22T14:23:41;26.90;99.90
40638;DHT22;26336;44.696;10.622;2023-07-22T14:26:47;26.80;99.90
40638;DHT22;26336;44.696;10.622;2023-07-22T14:29:51;26.90;99.90
40638;DHT22;26336;44.696;10.622;2023-07-22T14:32:55;27.00;99.90
40638;DHT22;26336;44.696;10.622;2023-07-22T14:35:59;27.00;99.90
40638;DHT22;26336;44.696;10.622;2023-07-22T14:39:03;27.00;99.90
40638;DHT22;26336;44.696;10.622;2023-07-22T14:42:07;26.90;99.50
40638;DHT22;26336;44.696;10.622;2023-07-22T14:45:12;27.00;99.30
40638;DHT22;26336;44.696;10.622;2023-07-22T14:48:16;27.10;99.90
40638;DHT22;26336;44.696;10.622;2023-07-22T14:51:20;27.10;99.90
40638;DHT22;26336;44.696;10.622;2023-07-22T14:54:23;27.20;99.60
40638;DHT22;26336;44.696;10.622;2023-07-22T14:57:28;27.20;98.90
40638;DHT22;26336;44.696;10.622;2023-07-22T15:00:34;27.20;99.30
40638;DHT22;26336;44.696;10.622;2023-07-22T15:03:38;27.30;99.30
40638;DHT22;26336;44.696;10.622;2023-07-22T15:06:42;27.30;98.30
40638;DHT22;26336;44.696;10.622;2023-07-22T15:09:46;27.40;98.90
40638;DHT22;26336;44.696;10.622;2023-07-22T15:12:50;27.40;98.20
40638;DHT22;26336;44.696;10.622;2023-07-22T15:15:55;27.50;98.90
40638;DHT22;26336;44.696;10.622;2023-07-22T15:18:59;27.50;99.10
40638;DHT22;26336;44.696;10.622;2023-07-22T15:22:04;27.50;99.90
40638;DHT22;26336;44.696;10.622;2023-07-22T15:25:08;27.60;99.90
40638;DHT22;26336;44.696;10.622;2023-07-22T15:28:13;27.60;99.90
40638;DHT22;26336;44.696;10.622;2023-07-22T15:31:19;27.60;99.90
40638;DHT22;26336;44.696;10.622;2023-07-22T15:34:23;27.40;99.90
40638;DHT22;26336;44.696;10.622;2023-07-22T15:37:27;27.50;99.90
40638;DHT22;26336;44.696;10.622;2023-07-22T15:40:35;27.40;99.90
40638;DHT22;26336;44.696;10.622;2023-07-22T15:43:39;27.50;99.00
40638;DHT22;26336;44.696;10.622;2023-07-22T15:46:43;27.50;99.00
40638;DHT22;26336;44.696;10.622;2023-07-22T15:49:48;27.60;99.30
40638;DHT22;26336;44.696;10.622;2023-07-22T15:52:52;27.60;99.80
40638;DHT22;26336;44.696;10.622;2023-07-22T15:55:57;27.60;99.90
40638;DHT22;26336;44.696;10.622;2023-07-22T15:59:01;27.60;99.90
40638;DHT22;26336;44.696;10.622;2023-07-22T16:02:08;27.60;99.50
40638;DHT22;26336;44.696;10.622;2023-07-22T16:05:12;27.60;99.20
40638;DHT22;26336;44.696;10.622;2023-07-22T16:08:16;27.70;99.20
40638;DHT22;26336;44.696;10.622;2023-07-22T16:11:20;27.70;99.40
40638;DHT22;26336;44.696;10.622;2023-07-22T16:14:24;27.70;99.90
40638;DHT22;26336;44.696;10.622;2023-07-22T16:17:37;27.60;99.30
40638;DHT22;26336;44.696;10.622;2023-07-22T16:20:41;27.50;99.50
40638;DHT22;26336;44.696;10.622;2023-07-22T16:23:45;27.60;99.70
40638;DHT22;26336;44.696;10.622;2023-07-22T16:26:58;27.60;99.50
40638;DHT22;26336;44.696;10.622;2023-07-22T16:30:02;27.60;99.20
40638;DHT22;26336;44.696;10.622;2023-07-22T16:33:10;27.60;99.10
40638;DHT22;26336;44.696;10.622;2023-07-22T16:36:14;27.60;99.10
40638;DHT22;26336;44.696;10.622;2023-07-22T16:39:19;27.60;99.30
40638;DHT22;26336;44.696;10.622;2023-07-22T16:42:29;27.60;99.20
40638;DHT22;26336;44.696;10.622;2023-07-22T16:45:36;27.60;99.00
40638;DHT22;26336;44.696;10.622;2023-07-22T16:48:48;27.70;98.70
40638;DHT22;26336;44.696;10.622;2023-07-22T16:51:55;27.70;99.10
40638;DHT22;26336;44.696;10.622;2023-07-22T16:55:24;27.70;98.70
40638;DHT22;26336;44.696;10.622;2023-07-22T16:58:28;27.70;98.90
40638;DHT22;26336;44.696;10.622;2023-07-22T17:01:35;27.70;98.80
40638;DHT22;26336;44.696;10.622;2023-07-22T17:04:39;27.70;98.50
40638;DHT22;26336;44.696;10.622;2023-07-22T17:07:43;27.60;99.00
40638;DHT22;26336;44.696;10.622;2023-07-22T17:10:50;27.60;99.90
40638;DHT22;26336;44.696;10.622;2023-07-22T17:13:56;27.50;98.40
40638;DHT22;26336;44.696;10.622;2023-07-22T17:17:06;27.50;98.70
40638;DHT22;26336;44.696;10.622;2023-07-22T17:20:11;27.50;99.00
40638;DHT22;26336;44.696;10.622;2023-07-22T17:23:16;27.50;98.90
40638;DHT22;26336;44.696;10.622;2023-07-22T17:26:20;27.50;99.00
40638;DHT22;26336;44.696;10.622;2023-07-22T17:29:28;27.50;98.90
40638;DHT22;26336;44.696;10.622;2023-07-22T17:32:36;27.60;99.20
40638;DHT22;26336;44.696;10.622;2023-07-22T17:35:42;27.60;99.30
40638;DHT22;26336;44.696;10.622;2023-07-22T17:38:46;27.50;99.70
40638;DHT22;26336;44.696;10.622;2023-07-22T17:41:50;27.50;99.70
40638;DHT22;26336;44.696;10.622;2023-07-22T17:44:55;27.50;99.80
40638;DHT22;26336;44.696;10.622;2023-07-22T17:47:59;27.40;99.70
40638;DHT22;26336;44.696;10.622;2023-07-22T17:51:03;27.40;99.60
40638;DHT22;26336;44.696;10.622;2023-07-22T17:54:08;27.40;99.80
40638;DHT22;26336;44.696;10.622;2023-07-22T17:57:12;27.40;99.30
40638;DHT22;26336;44.696;10.622;2023-07-22T18:00:16;27.30;99.60
40638;DHT22;26336;44.696;10.622;2023-07-22T18:03:24;27.30;99.40
40638;DHT22;26336;44.696;10.622;2023-07-22T18:06:29;27.30;99.20
40638;DHT22;26336;44.696;10.622;2023-07-22T18:09:38;27.30;99.20
40638;DHT22;26336;44.696;10.622;2023-07-22T18:12:42;27.30;99.30
40638;DHT22;26336;44.696;10.622;2023-07-22T18:15:46;27.30;99.20
40638;DHT22;26336;44.696;10.622;2023-07-22T18:18:50;27.30;99.50
40638;DHT22;26336;44.696;10.622;2023-07-22T18:21:54;27.30;99.40
40638;DHT22;26336;44.696;10.622;2023-07-22T18:24:58;27.20;99.30
40638;DHT22;26336;44.696;10.622;2023-07-22T18:28:01;27.30;99.50
40638;DHT22;26336;44.696;10.622;2023-07-22T18:31:07;27.30;99.50
40638;DHT22;26336;44.696;10.622;2023-07-22T18:34:11;27.30;99.50
40638;DHT22;26336;44.696;10.622;2023-07-22T18:37:15;27.20;99.50
40638;DHT22;26336;44.696;10.622;2023-07-22T18:40:19;27.20;99.40
40638;DHT22;26336;44.696;10.622;2023-07-22T18:43:23;27.20;99.60
40638;DHT22;26336;44.696;10.622;2023-07-22T18:46:27;27.30;99.80
40638;DHT22;26336;44.696;10.622;2023-07-22T18:49:33;27.20;99.40
40638;DHT22;26336;44.696;10.622;2023-07-22T18:52:38;27.20;99.80
40638;DHT22;26336;44.696;10.622;2023-07-22T18:55:42;27.30;99.80
40638;DHT22;26336;44.696;10.622;2023-07-22T18:58:46;27.20;99.50
40638;DHT22;26336;44.696;10.622;2023-07-22T19:01:50;27.20;99.50
40638;DHT22;26336;44.696;10.622;2023-07-22T19:04:54;27.20;99.90
40638;DHT22;26336;44.696;10.622;2023-07-22T19:08:02;27.10;99.90
40638;DHT22;26336;44.696;10.622;2023-07-22T19:11:06;27.00;99.90
40638;DHT22;26336;44.696;10.622;2023-07-22T19:14:16;26.90;99.90